sensor_id;sensor_type;location;lat;lon;timestamp;temperature;humidity
40636;DHT22;26642;55.766;37.828;2023-02-15T00:01:12;11.60;60.90
40636;DHT22;26642;55.766;37.828;2023-02-15T00:03:38;11.60;60.80
40636;DHT22;26642;55.766;37.828;2023-02-15T00:06:05;11.60;60.70
40636;DHT22;26642;55.766;37.828;2023-02-15T00:08:31;11.60;60.60
40636;DHT22;26642;55.766;37.828;2023-02-15T00:11:08;11.60;60.60
40636;DHT22;26642;55.766;37.828;2023-02-15T00:13:35;11.60;60.50
40636;DHT22;26642;55.766;37.828;2023-02-15T00:16:10;11.60;60.50
40636;DHT22;26642;55.766;37.828;2023-02-15T00:18:37;11.60;60.50
40636;DHT22;26642;55.766;37.828;2023-02-15T00:21:08;11.50;60.30
40636;DHT22;26642;55.766;37.828;2023-02-15T00:23:35;11.50;60.30
40636;DHT22;26642;55.766;37.828;2023-02-15T00:26:11;11.50;60.80
40636;DHT22;26642;55.766;37.828;2023-02-15T00:28:39;11.50;60.30
40636;DHT22;26642;55.766;37.828;2023-02-15T00:31:09;11.60;60.40
40636;DHT22;26642;55.766;37.828;2023-02-15T00:33:36;11.50;60.30
40636;DHT22;26642;55.766;37.828;2023-02-15T00:36:04;11.50;60.30
40636;DHT22;26642;55.766;37.828;2023-02-15T00:38:31;11.50;60.30
40636;DHT22;26642;55.766;37.828;2023-02-15T00:40:59;11.50;60.10
40636;DHT22;26642;55.766;37.828;2023-02-15T00:43:26;11.50;60.20
40636;DHT22;26642;55.766;37.828;2023-02-15T00:45:52;11.50;60.20
40636;DHT22;26642;55.766;37.828;2023-02-15T00:48:20;11.50;60.10
40636;DHT22;26642;55.766;37.828;2023-02-15T00:50:48;11.50;60.10
40636;DHT22;26642;55.766;37.828;2023-02-15T00:53:15;11.50;60.00
40636;DHT22;26642;55.766;37.828;2023-02-15T00:55:41;11.50;60.10
40636;DHT22;26642;55.766;37.828;2023-02-15T00:58:09;11.50;60.20
40636;DHT22;26642;55.766;37.828;2023-02-15T01:00:35;11.50;60.30
40636;DHT22;26642;55.766;37.828;2023-02-15T01:03:01;11.50;60.90
40636;DHT22;26642;55.766;37.828;2023-02-15T01:05:27;11.50;60.30
40636;DHT22;26642;55.766;37.828;2023-02-15T01:07:56;11.50;60.30
40636;DHT22;26642;55.766;37.828;2023-02-15T01:10:22;11.50;60.30
40636;DHT22;26642;55.766;37.828;2023-02-15T01:12:50;11.50;60.30
40636;DHT22;26642;55.766;37.828;2023-02-15T01:15:16;11.50;60.30
40636;DHT22;26642;55.766;37.828;2023-02-15T01:17:42;11.50;60.30
40636;DHT22;26642;55.766;37.828;2023-02-15T01:20:09;11.50;60.40
40636;DHT22;26642;55.766;37.828;2023-02-15T01:22:35;11.50;60.20
40636;DHT22;26642;55.766;37.828;2023-02-15T01:25:02;11.50;60.10
40636;DHT22;26642;55.766;37.828;2023-02-15T01:27:28;11.50;60.10
40636;DHT22;26642;55.766;37.828;2023-02-15T01:29:56;11.50;60.00
40636;DHT22;26642;55.766;37.828;2023-02-15T01:32:22;11.50;59.90
40636;DHT22;26642;55.766;37.828;2023-02-15T01:34:49;11.50;60.00
40636;DHT22;26642;55.766;37.828;2023-02-15T01:37:15;11.50;60.00
40636;DHT22;26642;55.766;37.828;2023-02-15T01:39:41;11.50;60.10
40636;DHT22;26642;55.766;37.828;2023-02-15T01:42:11;11.50;60.10
40636;DHT22;26642;55.766;37.828;2023-02-15T01:50:29;11.50;59.90
40636;DHT22;26642;55.766;37.828;2023-02-15T01:52:57;11.50;59.70
40636;DHT22;26642;55.766;37.828;2023-02-15T01:55:27;11.50;59.70
40636;DHT22;26642;55.766;37.828;2023-02-15T01:57:54;11.50;59.50
40636;DHT22;26642;55.766;37.828;2023-02-15T02:00:21;11.40;59.50
40636;DHT22;26642;55.766;37.828;2023-02-15T02:02:51;11.50;59.40
40636;DHT22;26642;55.766;37.828;2023-02-15T02:05:23;11.40;59.60
40636;DHT22;26642;55.766;37.828;2023-02-15T02:07:52;11.50;59.60
40636;DHT22;26642;55.766;37.828;2023-02-15T02:10:22;11.50;59.70
40636;DHT22;26642;55.766;37.828;2023-02-15T02:12:59;11.40;59.80
40636;DHT22;26642;55.766;37.828;2023-02-15T02:15:44;11.50;59.70
40636;DHT22;26642;55.766;37.828;2023-02-15T02:35:01;11.40;59.20
40636;DHT22;26642;55.766;37.828;2023-02-15T02:46:37;11.40;59.20
40636;DHT22;26642;55.766;37.828;2023-02-15T02:49:04;11.40;59.20
40636;DHT22;26642;55.766;37.828;2023-02-15T02:51:30;11.40;59.20
40636;DHT22;26642;55.766;37.828;2023-02-15T02:54:00;11.40;59.10
40636;DHT22;26642;55.766;37.828;2023-02-15T02:56:31;11.40;59.10
40636;DHT22;26642;55.766;37.828;2023-02-15T03:04:20;11.40;59.00
40636;DHT22;26642;55.766;37.828;2023-02-15T03:06:58;11.40;58.90
40636;DHT22;26642;55.766;37.828;2023-02-15T03:12:02;11.40;58.80
40636;DHT22;26642;55.766;37.828;2023-02-15T03:14:35;11.40;59.00
40636;DHT22;26642;55.766;37.828;2023-02-15T03:17:04;11.40;59.10
40636;DHT22;26642;55.766;37.828;2023-02-15T03:19:35;11.40;59.20
40636;DHT22;26642;55.766;37.828;2023-02-15T03:22:25;11.40;59.40
40636;DHT22;26642;55.766;37.828;2023-02-15T03:25:32;11.40;59.20
40636;DHT22;26642;55.766;37.828;2023-02-15T03:28:02;11.40;59.30
40636;DHT22;26642;55.766;37.828;2023-02-15T03:30:29;11.40;59.20
40636;DHT22;26642;55.766;37.828;2023-02-15T03:32:58;11.40;59.10
40636;DHT22;26642;55.766;37.828;2023-02-15T03:35:30;11.40;59.10
40636;DHT22;26642;55.766;37.828;2023-02-15T03:38:01;11.40;59.10
40636;DHT22;26642;55.766;37.828;2023-02-15T03:40:34;11.40;59.10
40636;DHT22;26642;55.766;37.828;2023-02-15T03:48:40;11.30;58.70
40636;DHT22;26642;55.766;37.828;2023-02-15T03:51:11;11.40;58.80
40636;DHT22;26642;55.766;37.828;2023-02-15T03:53:57;11.40;58.80
40636;DHT22;26642;55.766;37.828;2023-02-15T03:56:24;11.40;58.80
40636;DHT22;26642;55.766;37.828;2023-02-15T03:58:50;11.30;58.80
40636;DHT22;26642;55.766;37.828;2023-02-15T04:01:43;11.30;58.70
40636;DHT22;26642;55.766;37.828;2023-02-15T04:04:42;11.30;58.60
40636;DHT22;26642;55.766;37.828;2023-02-15T04:07:09;11.30;58.70
40636;DHT22;26642;55.766;37.828;2023-02-15T04:09:35;11.30;58.60
40636;DHT22;26642;55.766;37.828;2023-02-15T04:12:20;11.30;58.40
40636;DHT22;26642;55.766;37.828;2023-02-15T04:14:46;11.30;58.40
40636;DHT22;26642;55.766;37.828;2023-02-15T04:17:30;11.30;58.30
40636;DHT22;26642;55.766;37.828;2023-02-15T04:19:56;11.30;58.20
40636;DHT22;26642;55.766;37.828;2023-02-15T04:22:41;11.30;58.20
40636;DHT22;26642;55.766;37.828;2023-02-15T04:25:25;11.30;58.40
40636;DHT22;26642;55.766;37.828;2023-02-15T04:27:53;11.30;58.30
40636;DHT22;26642;55.766;37.828;2023-02-15T04:30:21;11.30;58.50
40636;DHT22;26642;55.766;37.828;2023-02-15T04:32:48;11.30;58.50
40636;DHT22;26642;55.766;37.828;2023-02-15T04:35:14;11.30;58.40
40636;DHT22;26642;55.766;37.828;2023-02-15T04:37:41;11.30;58.40
40636;DHT22;26642;55.766;37.828;2023-02-15T04:40:11;11.30;58.40
40636;DHT22;26642;55.766;37.828;2023-02-15T04:42:38;11.30;58.30
40636;DHT22;26642;55.766;37.828;2023-02-15T04:45:04;11.30;58.30
40636;DHT22;26642;55.766;37.828;2023-02-15T04:47:30;11.30;58.20
40636;DHT22;26642;55.766;37.828;2023-02-15T04:49:56;11.30;58.50
40636;DHT22;26642;55.766;37.828;2023-02-15T04:52:22;11.30;59.00
40636;DHT22;26642;55.766;37.828;2023-02-15T04:54:48;11.30;59.30
40636;DHT22;26642;55.766;37.828;2023-02-15T04:57:14;11.30;59.80
40636;DHT22;26642;55.766;37.828;2023-02-15T04:59:40;11.30;60.10
40636;DHT22;26642;55.766;37.828;2023-02-15T05:02:06;11.30;60.50
40636;DHT22;26642;55.766;37.828;2023-02-15T05:04:32;11.30;60.90
40636;DHT22;26642;55.766;37.828;2023-02-15T05:06:58;11.30;61.20
40636;DHT22;26642;55.766;37.828;2023-02-15T05:09:24;11.30;61.30
40636;DHT22;26642;55.766;37.828;2023-02-15T05:11:50;11.30;61.30
40636;DHT22;26642;55.766;37.828;2023-02-15T05:14:16;11.30;61.20
40636;DHT22;26642;55.766;37.828;2023-02-15T05:16:42;11.30;61.30
40636;DHT22;26642;55.766;37.828;2023-02-15T05:19:07;11.30;61.60
40636;DHT22;26642;55.766;37.828;2023-02-15T05:21:33;11.30;60.70
40636;DHT22;26642;55.766;37.828;2023-02-15T05:23:59;11.30;61.10
40636;DHT22;26642;55.766;37.828;2023-02-15T05:26:25;11.30;60.40
40636;DHT22;26642;55.766;37.828;2023-02-15T05:29:10;11.30;60.00
40636;DHT22;26642;55.766;37.828;2023-02-15T05:31:36;11.30;60.00
40636;DHT22;26642;55.766;37.828;2023-02-15T05:34:03;11.30;60.00
40636;DHT22;26642;55.766;37.828;2023-02-15T05:36:29;11.30;60.00
40636;DHT22;26642;55.766;37.828;2023-02-15T05:38:55;11.30;56.40
40636;DHT22;26642;55.766;37.828;2023-02-15T05:41:21;11.00;52.90
40636;DHT22;26642;55.766;37.828;2023-02-15T05:43:47;10.80;51.60
40636;DHT22;26642;55.766;37.828;2023-02-15T05:46:13;10.60;50.80
40636;DHT22;26642;55.766;37.828;2023-02-15T05:48:39;10.40;50.60
40636;DHT22;26642;55.766;37.828;2023-02-15T05:51:10;10.20;50.30
40636;DHT22;26642;55.766;37.828;2023-02-15T05:53:39;10.10;50.60
40636;DHT22;26642;55.766;37.828;2023-02-15T05:56:07;9.90;50.70
40636;DHT22;26642;55.766;37.828;2023-02-15T05:58:36;9.80;50.40
40636;DHT22;26642;55.766;37.828;2023-02-15T06:01:17;9.60;50.60
40636;DHT22;26642;55.766;37.828;2023-02-15T06:03:44;9.40;51.20
40636;DHT22;26642;55.766;37.828;2023-02-15T06:06:10;9.30;50.90
40636;DHT22;26642;55.766;37.828;2023-02-15T06:08:37;9.20;50.80
40636;DHT22;26642;55.766;37.828;2023-02-15T06:11:04;9.10;51.00
40636;DHT22;26642;55.766;37.828;2023-02-15T06:13:31;9.00;50.90
40636;DHT22;26642;55.766;37.828;2023-02-15T06:15:57;8.90;51.00
40636;DHT22;26642;55.766;37.828;2023-02-15T06:18:23;8.80;51.00
40636;DHT22;26642;55.766;37.828;2023-02-15T06:20:50;8.70;51.10
40636;DHT22;26642;55.766;37.828;2023-02-15T06:23:16;8.70;51.10
40636;DHT22;26642;55.766;37.828;2023-02-15T06:25:43;8.60;51.30
40636;DHT22;26642;55.766;37.828;2023-02-15T06:28:09;8.50;51.40
40636;DHT22;26642;55.766;37.828;2023-02-15T06:30:35;8.40;51.20
40636;DHT22;26642;55.766;37.828;2023-02-15T06:33:01;8.30;51.70
40636;DHT22;26642;55.766;37.828;2023-02-15T06:35:27;8.20;51.90
40636;DHT22;26642;55.766;37.828;2023-02-15T06:37:53;8.20;51.80
40636;DHT22;26642;55.766;37.828;2023-02-15T06:40:19;8.10;51.80
40636;DHT22;26642;55.766;37.828;2023-02-15T06:42:45;8.10;53.30
40636;DHT22;26642;55.766;37.828;2023-02-15T06:45:12;8.20;55.40
40636;DHT22;26642;55.766;37.828;2023-02-15T06:47:38;8.30;56.80
40636;DHT22;26642;55.766;37.828;2023-02-15T06:50:06;8.40;57.70
40636;DHT22;26642;55.766;37.828;2023-02-15T06:52:32;8.50;58.50
40636;DHT22;26642;55.766;37.828;2023-02-15T06:54:58;8.60;58.90
40636;DHT22;26642;55.766;37.828;2023-02-15T06:57:24;8.70;59.70
40636;DHT22;26642;55.766;37.828;2023-02-15T06:59:50;8.80;59.70
40636;DHT22;26642;55.766;37.828;2023-02-15T07:02:16;8.90;59.80
40636;DHT22;26642;55.766;37.828;2023-02-15T07:04:42;9.00;59.70
40636;DHT22;26642;55.766;37.828;2023-02-15T07:07:09;9.10;59.80
40636;DHT22;26642;55.766;37.828;2023-02-15T07:09:36;9.10;60.00
40636;DHT22;26642;55.766;37.828;2023-02-15T07:12:02;9.30;60.20
40636;DHT22;26642;55.766;37.828;2023-02-15T07:14:47;9.40;60.10
40636;DHT22;26642;55.766;37.828;2023-02-15T07:17:13;9.40;60.10
40636;DHT22;26642;55.766;37.828;2023-02-15T07:19:39;9.50;60.70
40636;DHT22;26642;55.766;37.828;2023-02-15T07:22:05;9.60;60.10
40636;DHT22;26642;55.766;37.828;2023-02-15T07:24:31;9.70;60.10
40636;DHT22;26642;55.766;37.828;2023-02-15T07:26:57;9.80;60.00
40636;DHT22;26642;55.766;37.828;2023-02-15T07:29:23;9.80;59.80
40636;DHT22;26642;55.766;37.828;2023-02-15T07:31:50;9.90;59.70
40636;DHT22;26642;55.766;37.828;2023-02-15T07:34:16;10.00;59.70
40636;DHT22;26642;55.766;37.828;2023-02-15T07:36:42;10.10;59.70
40636;DHT22;26642;55.766;37.828;2023-02-15T07:39:10;10.20;59.70
40636;DHT22;26642;55.766;37.828;2023-02-15T07:41:36;10.30;59.60
40636;DHT22;26642;55.766;37.828;2023-02-15T07:44:13;10.30;59.60
40636;DHT22;26642;55.766;37.828;2023-02-15T07:46:40;10.40;59.70
40636;DHT22;26642;55.766;37.828;2023-02-15T07:49:06;10.40;59.60
40636;DHT22;26642;55.766;37.828;2023-02-15T07:51:32;10.50;59.70
40636;DHT22;26642;55.766;37.828;2023-02-15T07:53:58;10.50;59.60
40636;DHT22;26642;55.766;37.828;2023-02-15T07:56:24;10.60;59.50
40636;DHT22;26642;55.766;37.828;2023-02-15T07:58:50;10.60;59.30
40636;DHT22;26642;55.766;37.828;2023-02-15T08:01:17;10.70;59.20
40636;DHT22;26642;55.766;37.828;2023-02-15T08:03:44;10.70;59.10
40636;DHT22;26642;55.766;37.828;2023-02-15T08:10:10;10.80;59.00
40636;DHT22;26642;55.766;37.828;2023-02-15T08:12:56;10.90;58.90
40636;DHT22;26642;55.766;37.828;2023-02-15T08:15:22;10.90;58.90
40636;DHT22;26642;55.766;37.828;2023-02-15T08:17:48;10.90;58.80
40636;DHT22;26642;55.766;37.828;2023-02-15T08:20:14;11.00;58.90
40636;DHT22;26642;55.766;37.828;2023-02-15T08:22:40;11.00;58.80
40636;DHT22;26642;55.766;37.828;2023-02-15T08:25:06;11.10;58.90
40636;DHT22;26642;55.766;37.828;2023-02-15T08:27:32;11.10;58.80
40636;DHT22;26642;55.766;37.828;2023-02-15T08:29:58;11.10;58.70
40636;DHT22;26642;55.766;37.828;2023-02-15T08:32:23;11.10;58.70
40636;DHT22;26642;55.766;37.828;2023-02-15T08:34:49;11.10;58.70
40636;DHT22;26642;55.766;37.828;2023-02-15T08:37:15;11.10;58.60
40636;DHT22;26642;55.766;37.828;2023-02-15T08:39:41;11.20;58.60
40636;DHT22;26642;55.766;37.828;2023-02-15T08:42:08;11.20;58.50
40636;DHT22;26642;55.766;37.828;2023-02-15T08:44:34;11.20;58.30
40636;DHT22;26642;55.766;37.828;2023-02-15T08:47:00;11.30;58.40
40636;DHT22;26642;55.766;37.828;2023-02-15T08:49:29;11.20;58.40
40636;DHT22;26642;55.766;37.828;2023-02-15T08:51:55;11.30;58.40
40636;DHT22;26642;55.766;37.828;2023-02-15T08:54:21;11.30;58.40
40636;DHT22;26642;55.766;37.828;2023-02-15T08:56:47;11.30;58.40
40636;DHT22;26642;55.766;37.828;2023-02-15T08:59:20;11.30;58.30
40636;DHT22;26642;55.766;37.828;2023-02-15T09:01:47;11.40;58.30
40636;DHT22;26642;55.766;37.828;2023-02-15T09:04:13;11.40;58.20
40636;DHT22;26642;55.766;37.828;2023-02-15T09:06:42;11.40;58.80
40636;DHT22;26642;55.766;37.828;2023-02-15T09:09:10;11.40;58.20
40636;DHT22;26642;55.766;37.828;2023-02-15T09:11:39;11.40;58.20
40636;DHT22;26642;55.766;37.828;2023-02-15T09:14:08;11.40;58.10
40636;DHT22;26642;55.766;37.828;2023-02-15T09:16:37;11.50;58.00
40636;DHT22;26642;55.766;37.828;2023-02-15T09:19:04;11.50;58.00
40636;DHT22;26642;55.766;37.828;2023-02-15T09:21:31;11.50;57.90
40636;DHT22;26642;55.766;37.828;2023-02-15T09:23:59;11.50;57.90
40636;DHT22;26642;55.766;37.828;2023-02-15T09:26:27;11.50;57.90
40636;DHT22;26642;55.766;37.828;2023-02-15T09:28:56;11.50;57.80
40636;DHT22;26642;55.766;37.828;2023-02-15T09:31:24;11.60;57.80
40636;DHT22;26642;55.766;37.828;2023-02-15T09:33:51;11.60;57.70
40636;DHT22;26642;55.766;37.828;2023-02-15T09:36:21;11.60;57.70
40636;DHT22;26642;55.766;37.828;2023-02-15T09:38:54;11.60;57.80
40636;DHT22;26642;55.766;37.828;2023-02-15T09:44:50;11.60;57.70
40636;DHT22;26642;55.766;37.828;2023-02-15T09:50:44;11.70;57.70
40636;DHT22;26642;55.766;37.828;2023-02-15T09:53:47;11.70;57.60
40636;DHT22;26642;55.766;37.828;2023-02-15T10:04:29;11.70;57.40
40636;DHT22;26642;55.766;37.828;2023-02-15T10:09:52;11.70;57.30
40636;DHT22;26642;55.766;37.828;2023-02-15T10:18:05;11.70;57.20
40636;DHT22;26642;55.766;37.828;2023-02-15T10:26:17;11.80;56.90
40636;DHT22;26642;55.766;37.828;2023-02-15T10:28:53;11.80;56.90
40636;DHT22;26642;55.766;37.828;2023-02-15T10:34:50;11.80;56.80
40636;DHT22;26642;55.766;37.828;2023-02-15T10:37:31;11.80;56.90
40636;DHT22;26642;55.766;37.828;2023-02-15T10:48:41;11.90;57.00
40636;DHT22;26642;55.766;37.828;2023-02-15T10:51:44;11.90;57.00
40636;DHT22;26642;55.766;37.828;2023-02-15T10:54:10;11.90;56.90
40636;DHT22;26642;55.766;37.828;2023-02-15T11:02:29;11.90;56.90
40636;DHT22;26642;55.766;37.828;2023-02-15T11:08:07;11.90;56.70
40636;DHT22;26642;55.766;37.828;2023-02-15T11:10:42;11.90;56.60
40636;DHT22;26642;55.766;37.828;2023-02-15T11:13:12;11.90;56.60
40636;DHT22;26642;55.766;37.828;2023-02-15T11:18:31;11.90;56.40
40636;DHT22;26642;55.766;37.828;2023-02-15T11:23:47;11.90;56.30
40636;DHT22;26642;55.766;37.828;2023-02-15T11:28:57;11.80;56.30
40636;DHT22;26642;55.766;37.828;2023-02-15T11:31:26;11.90;56.30
40636;DHT22;26642;55.766;37.828;2023-02-15T11:34:04;11.90;56.30
40636;DHT22;26642;55.766;37.828;2023-02-15T11:36:40;11.90;56.20
40636;DHT22;26642;55.766;37.828;2023-02-15T11:39:12;11.90;56.20
40636;DHT22;26642;55.766;37.828;2023-02-15T11:41:44;11.90;56.00
40636;DHT22;26642;55.766;37.828;2023-02-15T11:44:16;11.90;56.00
40636;DHT22;26642;55.766;37.828;2023-02-15T11:46:43;11.90;56.00
40636;DHT22;26642;55.766;37.828;2023-02-15T11:49:26;11.90;55.90
40636;DHT22;26642;55.766;37.828;2023-02-15T11:51:53;11.90;56.60
40636;DHT22;26642;55.766;37.828;2023-02-15T11:54:26;11.90;56.00
40636;DHT22;26642;55.766;37.828;2023-02-15T11:56:56;11.90;55.90
40636;DHT22;26642;55.766;37.828;2023-02-15T11:59:32;11.90;55.90
40636;DHT22;26642;55.766;37.828;2023-02-15T12:02:00;11.90;55.90
40636;DHT22;26642;55.766;37.828;2023-02-15T12:04:30;11.90;55.90
40636;DHT22;26642;55.766;37.828;2023-02-15T12:06:58;11.90;55.70
40636;DHT22;26642;55.766;37.828;2023-02-15T12:10:04;11.90;55.80
40636;DHT22;26642;55.766;37.828;2023-02-15T12:12:36;11.90;55.80
40636;DHT22;26642;55.766;37.828;2023-02-15T12:15:05;11.90;55.70
40636;DHT22;26642;55.766;37.828;2023-02-15T12:17:48;11.90;55.60
40636;DHT22;26642;55.766;37.828;2023-02-15T12:23:14;11.90;55.50
40636;DHT22;26642;55.766;37.828;2023-02-15T12:25:52;11.90;55.50
40636;DHT22;26642;55.766;37.828;2023-02-15T12:28:26;11.90;55.40
40636;DHT22;26642;55.766;37.828;2023-02-15T12:30:56;11.90;55.30
40636;DHT22;26642;55.766;37.828;2023-02-15T12:33:31;11.90;55.40
40636;DHT22;26642;55.766;37.828;2023-02-15T12:36:09;11.90;55.30
40636;DHT22;26642;55.766;37.828;2023-02-15T12:38:36;11.90;55.40
40636;DHT22;26642;55.766;37.828;2023-02-15T12:41:23;11.90;55.40
40636;DHT22;26642;55.766;37.828;2023-02-15T12:44:22;11.90;55.50
40636;DHT22;26642;55.766;37.828;2023-02-15T12:49:28;11.80;55.00
40636;DHT22;26642;55.766;37.828;2023-02-15T12:51:59;11.80;54.90
40636;DHT22;26642;55.766;37.828;2023-02-15T12:54:34;11.80;54.90
40636;DHT22;26642;55.766;37.828;2023-02-15T12:57:27;11.80;54.90
40636;DHT22;26642;55.766;37.828;2023-02-15T12:59:54;11.90;55.10
40636;DHT22;26642;55.766;37.828;2023-02-15T13:02:27;11.90;55.10
40636;DHT22;26642;55.766;37.828;2023-02-15T13:04:55;11.90;55.10
40636;DHT22;26642;55.766;37.828;2023-02-15T13:07:25;11.80;55.00
40636;DHT22;26642;55.766;37.828;2023-02-15T13:09:51;11.90;55.10
40636;DHT22;26642;55.766;37.828;2023-02-15T13:14:48;11.80;54.90
40636;DHT22;26642;55.766;37.828;2023-02-15T13:17:20;11.80;55.00
40636;DHT22;26642;55.766;37.828;2023-02-15T13:19:49;11.80;55.00
40636;DHT22;26642;55.766;37.828;2023-02-15T13:22:20;11.90;55.00
40636;DHT22;26642;55.766;37.828;2023-02-15T13:24:51;11.80;55.00
40636;DHT22;26642;55.766;37.828;2023-02-15T13:27:21;11.80;55.00
40636;DHT22;26642;55.766;37.828;2023-02-15T13:29:51;11.80;54.90
40636;DHT22;26642;55.766;37.828;2023-02-15T13:32:35;11.80;54.80
40636;DHT22;26642;55.766;37.828;2023-02-15T13:35:15;11.80;54.90
40636;DHT22;26642;55.766;37.828;2023-02-15T13:42:55;11.80;54.70
40636;DHT22;26642;55.766;37.828;2023-02-15T13:53:53;11.80;54.70
40636;DHT22;26642;55.766;37.828;2023-02-15T13:56:40;11.80;54.60
40636;DHT22;26642;55.766;37.828;2023-02-15T14:20:44;11.70;54.60
40636;DHT22;26642;55.766;37.828;2023-02-15T14:23:55;11.70;54.70
40636;DHT22;26642;55.766;37.828;2023-02-15T14:26:31;11.70;54.80
40636;DHT22;26642;55.766;37.828;2023-02-15T14:31:53;11.70;54.90
40636;DHT22;26642;55.766;37.828;2023-02-15T14:34:30;11.60;54.90
40636;DHT22;26642;55.766;37.828;2023-02-15T14:37:01;11.70;55.00
40636;DHT22;26642;55.766;37.828;2023-02-15T14:39:31;11.60;54.90
40636;DHT22;26642;55.766;37.828;2023-02-15T14:47:44;11.60;55.00
40636;DHT22;26642;55.766;37.828;2023-02-15T14:55:40;11.60;55.20
40636;DHT22;26642;55.766;37.828;2023-02-15T14:58:15;11.60;55.20
40636;DHT22;26642;55.766;37.828;2023-02-15T15:00:42;11.60;55.30
40636;DHT22;26642;55.766;37.828;2023-02-15T15:03:20;11.60;55.30
40636;DHT22;26642;55.766;37.828;2023-02-15T15:05:54;11.60;55.20
40636;DHT22;26642;55.766;37.828;2023-02-15T15:08:47;11.60;55.10
40636;DHT22;26642;55.766;37.828;2023-02-15T15:13:59;11.60;55.20
40636;DHT22;26642;55.766;37.828;2023-02-15T15:16:47;11.60;55.10
40636;DHT22;26642;55.766;37.828;2023-02-15T15:22:20;11.60;55.10
40636;DHT22;26642;55.766;37.828;2023-02-15T15:24:49;11.50;54.90
40636;DHT22;26642;55.766;37.828;2023-02-15T15:33:16;11.60;55.10
40636;DHT22;26642;55.766;37.828;2023-02-15T15:45:25;11.50;55.40
40636;DHT22;26642;55.766;37.828;2023-02-15T15:51:34;11.50;55.50
40636;DHT22;26642;55.766;37.828;2023-02-15T15:54:03;11.50;55.70
40636;DHT22;26642;55.766;37.828;2023-02-15T15:56:34;11.50;55.80
40636;DHT22;26642;55.766;37.828;2023-02-15T15:59:06;11.50;55.90
40636;DHT22;26642;55.766;37.828;2023-02-15T16:01:41;11.50;56.00
40636;DHT22;26642;55.766;37.828;2023-02-15T16:04:35;11.50;56.10
40636;DHT22;26642;55.766;37.828;2023-02-15T16:10:04;11.50;56.10
40636;DHT22;26642;55.766;37.828;2023-02-15T16:12:33;11.50;56.20
40636;DHT22;26642;55.766;37.828;2023-02-15T16:15:04;11.50;56.10
40636;DHT22;26642;55.766;37.828;2023-02-15T16:17:33;11.40;56.00
40636;DHT22;26642;55.766;37.828;2023-02-15T16:20:20;11.50;56.10
40636;DHT22;26642;55.766;37.828;2023-02-15T16:22:53;11.60;56.20
40636;DHT22;26642;55.766;37.828;2023-02-15T16:28:22;11.50;56.20
40636;DHT22;26642;55.766;37.828;2023-02-15T16:31:20;11.50;56.20
40636;DHT22;26642;55.766;37.828;2023-02-15T16:33:45;11.50;56.30
40636;DHT22;26642;55.766;37.828;2023-02-15T16:36:27;11.50;56.40
40636;DHT22;26642;55.766;37.828;2023-02-15T17:01:51;11.20;58.00
40636;DHT22;26642;55.766;37.828;2023-02-15T17:07:13;11.20;59.00
40636;DHT22;26642;55.766;37.828;2023-02-15T17:09:50;11.40;58.70
40636;DHT22;26642;55.766;37.828;2023-02-15T17:12:56;11.40;58.40
40636;DHT22;26642;55.766;37.828;2023-02-15T17:15:39;11.40;58.20
40636;DHT22;26642;55.766;37.828;2023-02-15T17:18:16;11.50;58.20
40636;DHT22;26642;55.766;37.828;2023-02-15T17:20:44;11.40;57.90
40636;DHT22;26642;55.766;37.828;2023-02-15T17:23:36;11.50;58.00
40636;DHT22;26642;55.766;37.828;2023-02-15T17:26:34;11.50;57.90
40636;DHT22;26642;55.766;37.828;2023-02-15T17:29:19;11.50;57.60
40636;DHT22;26642;55.766;37.828;2023-02-15T17:31:50;11.50;57.40
40636;DHT22;26642;55.766;37.828;2023-02-15T17:34:42;11.50;57.20
40636;DHT22;26642;55.766;37.828;2023-02-15T17:37:12;11.50;57.20
40636;DHT22;26642;55.766;37.828;2023-02-15T17:39:38;11.50;57.10
40636;DHT22;26642;55.766;37.828;2023-02-15T17:42:06;11.50;57.00
40636;DHT22;26642;55.766;37.828;2023-02-15T17:44:32;11.50;57.00
40636;DHT22;26642;55.766;37.828;2023-02-15T17:46:57;11.50;56.90
40636;DHT22;26642;55.766;37.828;2023-02-15T17:49:26;11.50;56.90
40636;DHT22;26642;55.766;37.828;2023-02-15T17:52:00;11.50;56.90
40636;DHT22;26642;55.766;37.828;2023-02-15T17:54:27;11.50;56.90
40636;DHT22;26642;55.766;37.828;2023-02-15T17:57:13;11.50;56.90
40636;DHT22;26642;55.766;37.828;2023-02-15T17:59:40;11.50;57.00
40636;DHT22;26642;55.766;37.828;2023-02-15T18:02:24;11.50;57.10
40636;DHT22;26642;55.766;37.828;2023-02-15T18:05:15;11.50;57.20
40636;DHT22;26642;55.766;37.828;2023-02-15T18:08:00;11.50;56.80
40636;DHT22;26642;55.766;37.828;2023-02-15T18:10:44;11.30;51.40
40636;DHT22;26642;55.766;37.828;2023-02-15T18:13:29;11.10;48.50
40636;DHT22;26642;55.766;37.828;2023-02-15T18:15:55;10.80;47.30
40636;DHT22;26642;55.766;37.828;2023-02-15T18:18:21;10.60;47.30
40636;DHT22;26642;55.766;37.828;2023-02-15T18:20:49;10.30;47.50
40636;DHT22;26642;55.766;37.828;2023-02-15T18:23:15;10.10;47.80
40636;DHT22;26642;55.766;37.828;2023-02-15T18:25:41;9.90;48.00
40636;DHT22;26642;55.766;37.828;2023-02-15T18:28:08;9.80;48.00
40636;DHT22;26642;55.766;37.828;2023-02-15T18:30:39;9.60;48.30
40636;DHT22;26642;55.766;37.828;2023-02-15T18:33:28;9.40;48.30
40636;DHT22;26642;55.766;37.828;2023-02-15T18:35:56;9.30;48.50
40636;DHT22;26642;55.766;37.828;2023-02-15T18:38:22;9.10;48.30
40636;DHT22;26642;55.766;37.828;2023-02-15T18:40:48;9.00;48.50
40636;DHT22;26642;55.766;37.828;2023-02-15T18:43:15;8.90;48.60
40636;DHT22;26642;55.766;37.828;2023-02-15T18:45:41;8.80;48.90
40636;DHT22;26642;55.766;37.828;2023-02-15T18:48:07;8.60;48.80
40636;DHT22;26642;55.766;37.828;2023-02-15T18:50:36;8.50;49.00
40636;DHT22;26642;55.766;37.828;2023-02-15T18:53:04;8.40;49.20
40636;DHT22;26642;55.766;37.828;2023-02-15T18:55:31;8.30;49.90
40636;DHT22;26642;55.766;37.828;2023-02-15T18:57:58;8.30;51.30
40636;DHT22;26642;55.766;37.828;2023-02-15T19:00:27;8.30;52.50
40636;DHT22;26642;55.766;37.828;2023-02-15T19:02:55;8.40;53.10
40636;DHT22;26642;55.766;37.828;2023-02-15T19:05:22;8.50;53.60
40636;DHT22;26642;55.766;37.828;2023-02-15T19:07:49;8.50;53.90
40636;DHT22;26642;55.766;37.828;2023-02-15T19:10:21;8.60;54.20
40636;DHT22;26642;55.766;37.828;2023-02-15T19:12:48;8.70;54.40
40636;DHT22;26642;55.766;37.828;2023-02-15T19:15:16;8.70;54.40
40636;DHT22;26642;55.766;37.828;2023-02-15T19:17:43;8.80;54.60
40636;DHT22;26642;55.766;37.828;2023-02-15T19:20:21;8.80;54.50
40636;DHT22;26642;55.766;37.828;2023-02-15T19:22:49;8.90;54.40